ADDS METAR Data INFO
IDs: Format: Raw Decoded Include TAF

Data at: 1134 UTC 17 Jul 2018

KGRY 171115Z AUTO VRB07KT 9SM FEW024 31/24 A3008 RMK A01
KGRY 171025Z AUTO VRB04KT 9SM FEW024 31/24 A3006 RMK A01
KGRY 171015Z AUTO 00000KT 9SM CLR 30/24 A3006 RMK A01
KGRY 170955Z AUTO VRB05KT 9SM CLR 30/24 A3006 RMK A01
KGRY 170935Z AUTO 22007G12KT 9SM CLR 29/24 A3005 RMK A01
KGRY 170915Z AUTO 22007G14KT 9SM CLR 29/24 A3005 RMK A01
KGRY 170855Z AUTO 21009KT 9SM CLR 29/23 A3005 RMK A01
KGRY 170835Z AUTO 21008KT 9SM CLR 29/23 A3005 RMK A01
KGRY 170815Z AUTO VRB05KT 9SM CLR 30/23 A3006 RMK A01
KGRY 170755Z AUTO 22005KT 9SM CLR 30/23 A3006 RMK A01
KGRY 170735Z AUTO 21006KT 10SM CLR 29/23 A3007 RMK A01
KGRY 170715Z AUTO 22005KT 10SM FEW026 29/24 A3007 RMK A01
KGRY 170655Z AUTO 21005KT 9SM FEW026 29/24 A3007 RMK A01
KGRY 170635Z AUTO 21006KT 9SM CLR 29/24 A3007 RMK A01
KGRY 170615Z AUTO 21005KT 10SM FEW026 30/24 A3007 RMK A01
KGRY 170555Z AUTO 20004KT 9SM SCT027 30/24 A3008 RMK A01
KGRY 170535Z AUTO 20003KT 9SM BKN027 30/24 A3008 RMK A01
KGRY 170515Z AUTO 00000KT 9SM SCT027 33/24 A3009 RMK A01
KGRY 170455Z AUTO 00000KT 9SM FEW027 32/24 A3009 RMK A01
KGRY 170435Z AUTO 00000KT 9SM FEW028 33/24 A3009 RMK A01
KGRY 170415Z AUTO 00000KT 9SM SCT028 34/24 A3009 RMK A01
KGRY 170355Z AUTO 00000KT 10SM SCT029 SCT060 32/24 A3008 RMK A01
KGRY 170335Z AUTO 00000KT 10SM FEW060 33/24 A3008 RMK A01
KGRY 170315Z AUTO 00000KT 10SM FEW028 32/24 A3008 RMK A01
KGRY 170255Z AUTO 00000KT 9SM FEW028 31/24 A3008 RMK A01
KGRY 170235Z AUTO 00000KT 10SM FEW028 32/23 A3007 RMK A01
KGRY 170215Z AUTO 00000KT 9SM FEW028 32/23 A3007 RMK A01
KGRY 170155Z AUTO VRB03KT 10SM FEW028 32/23 A3006 RMK A01
KGRY 170135Z AUTO 00000KT 10SM CLR 33/23 A3006 RMK A01
KGRY 170115Z AUTO 00000KT 10SM CLR 33/23 A3006 RMK A01
KGRY 170055Z AUTO 00000KT 9SM CLR 33/23 A3006 RMK A01
KGRY 170035Z AUTO 00000KT 10SM CLR 34/23 A3005 RMK A01
KGRY 170015Z AUTO 00000KT 10SM CLR 32/24 A3005 RMK A01
KGRY 162355Z AUTO 00000KT 10SM CLR 33/23 A3005 RMK A01
KGRY 162335Z AUTO 00000KT 10SM CLR 33/23 A3005 RMK A01
KGRY 162315Z AUTO 00000KT 10SM CLR 34/23 A3005 RMK A01
KGRY 162255Z AUTO 00000KT 9SM CLR 33/23 A3005 RMK A01
KGRY 162235Z AUTO VRB03KT 10SM CLR 32/23 A3005 RMK A01
KGRY 162215Z AUTO 00000KT 10SM CLR 33/24 A3006 RMK A01
KGRY 162155Z AUTO 00000KT 9SM CLR 33/24 A3006 RMK A01
KGRY 162135Z AUTO 00000KT 9SM CLR 35/23 A3007 RMK A01
KGRY 162115Z AUTO 00000KT 10SM CLR 35/23 A3007 RMK A01
KGRY 162055Z AUTO 00000KT 10SM CLR 35/23 A3007 RMK A01
KGRY 162035Z AUTO 00000KT 10SM CLR 34/24 A3008 RMK A01
KGRY 162015Z AUTO 20003KT 10SM CLR 31/23 A3008 RMK A01
KGRY 161955Z AUTO 00000KT 10SM CLR 36/23 A3009 RMK A01
KGRY 161935Z AUTO 00000KT 9SM CLR 35/23 A3009 RMK A01
KGRY 161915Z AUTO 00000KT 10SM CLR 35/23 A3009 RMK A01
KGRY 161855Z AUTO 00000KT 10SM CLR 35/23 A3009 RMK A01
KGRY 161835Z AUTO 00000KT 10SM CLR 35/24 A3010 RMK A01
KGRY 161815Z AUTO 00000KT 10SM CLR 35/23 A3010 RMK A01
KGRY 161755Z AUTO 00000KT 9SM CLR 35/24 A3010 RMK A01
KGRY 161735Z AUTO 00000KT 10SM CLR 35/24 A3011 RMK A01
KGRY 161715Z AUTO 00000KT 9SM CLR 35/24 A3010 RMK A01
KGRY 161655Z AUTO 00000KT 9SM FEW027 35/24 A3011 RMK A01
KGRY 161635Z AUTO VRB04KT 9SM FEW028 35/24 A3011 RMK A01
KGRY 161615Z AUTO 00000KT 9SM CLR 35/24 A3011 RMK A01
KGRY 161555Z AUTO 00000KT 9SM CLR 34/24 A3011 RMK A01
KGRY 161535Z AUTO 00000KT 9SM CLR 33/24 A3011 RMK A01
KGRY 161515Z AUTO VRB04KT 9SM CLR 32/24 A3011 RMK A01
KGRY 161455Z AUTO 00000KT 9SM CLR 33/24 A3010 RMK A01
KGRY 161435Z AUTO 00000KT 9SM CLR 32/24 A3010 RMK A01
KGRY 161415Z AUTO 00000KT 9SM CLR 33/23 A3010 RMK A01
KGRY 161355Z AUTO 00000KT 9SM FEW027 FEW038 32/23 A3010 RMK A01
KGRY 161335Z AUTO 00000KT 10SM SCT028 SCT037 32/23 A3009 RMK A01
KGRY 161315Z AUTO 00000KT 9SM FEW029 33/23 A3009 RMK A01
KGRY 161255Z AUTO 00000KT 9SM CLR 32/24 A3008 RMK A01
KGRY 161235Z AUTO 00000KT 10SM CLR 32/23 A3008 RMK A01
KGRY 161215Z AUTO 00000KT 9SM FEW026 FEW031 31/23 A3007 RMK A01
KGRY 161155Z AUTO 00000KT 10SM FEW025 SCT031 31/24 A3007 RMK A01
KGRY 161135Z AUTO VRB05KT 9SM FEW026 31/24 A3006 RMK A01
KGRY 161115Z AUTO VRB05KT 9SM CLR 31/23 A3006 RMK A01
KGRY 161055Z AUTO 00000KT 10SM CLR 31/23 A3006 RMK A01
KGRY 161035Z AUTO VRB04KT 10SM CLR 31/23 A3006 RMK A01
KGRY 161015Z AUTO VRB05G10KT 9SM CLR 31/23 A3006 RMK A01
KGRY 160955Z AUTO VRB04KT 10SM CLR 31/23 A3005 RMK A01
KGRY 160935Z AUTO VRB03KT 10SM CLR 31/24 A3005 RMK A01
KGRY 160915Z AUTO VRB05KT 9SM FEW026 31/24 A3005 RMK A01
KGRY 160855Z AUTO 00000KT 10SM FEW026 31/24 A3005 RMK A01
KGRY 160835Z AUTO 00000KT 10SM FEW027 31/24 A3005 RMK A01
KGRY 160815Z AUTO 27005KT 10SM CLR 31/24 A3004 RMK A01
KGRY 160755Z AUTO 00000KT 10SM FEW027 SCT038 31/23 A3005 RMK A01
KGRY 160735Z AUTO VRB04KT 10SM BKN026 BKN038 31/24 A3005 RMK A01
KGRY 160715Z AUTO 00000KT 10SM SCT026 31/24 A3005 RMK A01
KGRY 160655Z AUTO VRB04KT 10SM SCT026 SCT032 32/24 A3005 RMK A01
KGRY 160635Z AUTO 00000KT 10SM BKN026 BKN032 31/24 A3006 RMK A01
KGRY 160615Z AUTO 00000KT 10SM CLR 31/24 A3007 RMK A01
KGRY 160555Z AUTO 00000KT 10SM CLR 32/23 A3007 RMK A01
KGRY 160535Z AUTO 00000KT 10SM CLR 33/23 A3008 RMK A01
KGRY 160515Z AUTO 00000KT 10SM CLR 33/23 A3008 RMK A01
KGRY 160455Z AUTO 00000KT 10SM CLR 32/23 A3008 RMK A01
KGRY 160435Z AUTO 00000KT 10SM CLR 33/23 A3007 RMK A01
KGRY 160415Z AUTO 00000KT 10SM CLR 33/23 A3007 RMK A01
KGRY 160355Z AUTO 00000KT 10SM CLR 33/23 A3007 RMK A01
KGRY 160335Z AUTO 00000KT 10SM CLR 33/23 A3007 RMK A01
KGRY 160315Z AUTO 00000KT 10SM CLR 34/23 A3007 RMK A01
KGRY 160255Z AUTO 00000KT 10SM CLR 33/23 A3007 RMK A01
KGRY 160235Z AUTO 00000KT 10SM CLR 34/23 A3007 RMK A01
KGRY 160215Z AUTO 00000KT 10SM CLR 34/23 A3006 RMK A01
KGRY 160155Z AUTO 00000KT 10SM CLR 33/23 A3006 RMK A01
KGRY 160135Z AUTO 00000KT 10SM FEW030 33/23 A3006 RMK A01
KGRY 160115Z AUTO 00000KT 10SM CLR 32/23 A3006 RMK A01
KGRY 160055Z AUTO VRB03KT 10SM CLR 33/23 A3006 RMK A01
KGRY 160035Z AUTO 00000KT 10SM CLR 32/23 A3006 RMK A01
KGRY 160015Z AUTO VRB04KT 10SM FEW028 32/23 A3005 RMK A01
KGRY 152355Z AUTO 00000KT 10SM BKN028 32/24 A3004 RMK A01
KGRY 152335Z AUTO 00000KT 10SM BKN028 33/24 A3003 RMK A01